sensor_id;sensor_type;location;lat;lon;timestamp;P1;durP1;ratioP1;P2;durP2;ratioP2
84774;SDS011;75005;50.966;11.344;2024-03-23T00:54:06;16.10;;;9.57;;
84774;SDS011;75005;50.966;11.344;2024-03-23T00:56:31;21.20;;;11.50;;
84774;SDS011;75005;50.966;11.344;2024-03-23T00:58:57;26.65;;;10.98;;
84774;SDS011;75005;50.966;11.344;2024-03-23T01:01:22;22.67;;;12.40;;
84774;SDS011;75005;50.966;11.344;2024-03-23T01:03:48;17.87;;;10.97;;
84774;SDS011;75005;50.966;11.344;2024-03-23T01:06:13;20.63;;;11.07;;
84774;SDS011;75005;50.966;11.344;2024-03-23T01:08:38;18.10;;;10.87;;
84774;SDS011;75005;50.966;11.344;2024-03-23T01:11:04;18.57;;;10.90;;
84774;SDS011;75005;50.966;11.344;2024-03-23T01:13:29;23.10;;;10.37;;
84774;SDS011;75005;50.966;11.344;2024-03-23T01:15:55;18.63;;;10.48;;
84774;SDS011;75005;50.966;11.344;2024-03-23T01:18:21;16.75;;;10.27;;
84774;SDS011;75005;50.966;11.344;2024-03-23T01:20:48;20.35;;;11.63;;
84774;SDS011;75005;50.966;11.344;2024-03-23T01:23:13;22.52;;;12.60;;
84774;SDS011;75005;50.966;11.344;2024-03-23T01:25:39;20.25;;;12.25;;
84774;SDS011;75005;50.966;11.344;2024-03-23T01:28:04;21.33;;;13.07;;
84774;SDS011;75005;50.966;11.344;2024-03-23T01:30:33;23.75;;;13.35;;
84774;SDS011;75005;50.966;11.344;2024-03-23T01:32:59;18.35;;;11.65;;
84774;SDS011;75005;50.966;11.344;2024-03-23T01:35:25;20.17;;;11.07;;
84774;SDS011;75005;50.966;11.344;2024-03-23T01:37:51;23.38;;;12.35;;
84774;SDS011;75005;50.966;11.344;2024-03-23T01:40:16;23.33;;;12.43;;
84774;SDS011;75005;50.966;11.344;2024-03-23T01:42:42;17.70;;;10.00;;
84774;SDS011;75005;50.966;11.344;2024-03-23T01:45:08;23.17;;;12.48;;
84774;SDS011;75005;50.966;11.344;2024-03-23T01:47:35;21.35;;;12.18;;
84774;SDS011;75005;50.966;11.344;2024-03-23T01:50:00;19.48;;;11.30;;
84774;SDS011;75005;50.966;11.344;2024-03-23T01:52:26;18.55;;;12.82;;
84774;SDS011;75005;50.966;11.344;2024-03-23T01:54:55;22.10;;;11.90;;
84774;SDS011;75005;50.966;11.344;2024-03-23T01:57:20;23.70;;;12.18;;
84774;SDS011;75005;50.966;11.344;2024-03-23T01:59:47;24.13;;;13.82;;
84774;SDS011;75005;50.966;11.344;2024-03-23T02:02:12;25.13;;;12.70;;
84774;SDS011;75005;50.966;11.344;2024-03-23T02:04:38;27.55;;;13.68;;
84774;SDS011;75005;50.966;11.344;2024-03-23T02:07:04;21.98;;;12.20;;
84774;SDS011;75005;50.966;11.344;2024-03-23T02:09:31;24.05;;;13.00;;
84774;SDS011;75005;50.966;11.344;2024-03-23T02:11:57;24.77;;;13.30;;
84774;SDS011;75005;50.966;11.344;2024-03-23T02:14:22;24.80;;;15.00;;
84774;SDS011;75005;50.966;11.344;2024-03-23T02:16:47;23.67;;;13.53;;
84774;SDS011;75005;50.966;11.344;2024-03-23T02:19:13;23.38;;;12.98;;
84774;SDS011;75005;50.966;11.344;2024-03-23T02:21:38;22.50;;;13.05;;
84774;SDS011;75005;50.966;11.344;2024-03-23T02:24:04;25.70;;;12.43;;
84774;SDS011;75005;50.966;11.344;2024-03-23T02:26:29;24.20;;;13.30;;
84774;SDS011;75005;50.966;11.344;2024-03-23T02:28:54;21.87;;;12.33;;
84774;SDS011;75005;50.966;11.344;2024-03-23T02:31:20;20.30;;;11.60;;
84774;SDS011;75005;50.966;11.344;2024-03-23T02:33:45;23.27;;;13.30;;
84774;SDS011;75005;50.966;11.344;2024-03-23T02:36:10;22.17;;;11.38;;
84774;SDS011;75005;50.966;11.344;2024-03-23T02:38:36;22.00;;;12.07;;
84774;SDS011;75005;50.966;11.344;2024-03-23T02:41:04;20.03;;;11.90;;
84774;SDS011;75005;50.966;11.344;2024-03-23T02:43:30;21.95;;;12.82;;
84774;SDS011;75005;50.966;11.344;2024-03-23T02:45:56;20.95;;;11.55;;
84774;SDS011;75005;50.966;11.344;2024-03-23T02:48:21;25.88;;;12.65;;
84774;SDS011;75005;50.966;11.344;2024-03-23T02:50:46;23.50;;;12.57;;
84774;SDS011;75005;50.966;11.344;2024-03-23T02:53:12;21.90;;;12.90;;
84774;SDS011;75005;50.966;11.344;2024-03-23T02:55:37;30.48;;;13.48;;
84774;SDS011;75005;50.966;11.344;2024-03-23T02:58:03;19.70;;;11.32;;
84774;SDS011;75005;50.966;11.344;2024-03-23T03:00:28;23.08;;;12.63;;
84774;SDS011;75005;50.966;11.344;2024-03-23T03:02:54;21.10;;;11.88;;
84774;SDS011;75005;50.966;11.344;2024-03-23T03:05:19;24.58;;;11.98;;
84774;SDS011;75005;50.966;11.344;2024-03-23T03:07:44;24.03;;;13.10;;
84774;SDS011;75005;50.966;11.344;2024-03-23T03:10:10;21.57;;;11.67;;
84774;SDS011;75005;50.966;11.344;2024-03-23T03:12:48;21.75;;;12.52;;
84774;SDS011;75005;50.966;11.344;2024-03-23T03:15:13;27.65;;;13.80;;
84774;SDS011;75005;50.966;11.344;2024-03-23T03:17:38;23.40;;;12.47;;
84774;SDS011;75005;50.966;11.344;2024-03-23T03:20:04;20.53;;;12.37;;
84774;SDS011;75005;50.966;11.344;2024-03-23T03:22:30;21.98;;;12.23;;
84774;SDS011;75005;50.966;11.344;2024-03-23T03:24:55;22.85;;;12.15;;
84774;SDS011;75005;50.966;11.344;2024-03-23T03:27:20;22.20;;;13.17;;
84774;SDS011;75005;50.966;11.344;2024-03-23T03:29:47;24.05;;;13.95;;
84774;SDS011;75005;50.966;11.344;2024-03-23T03:32:12;25.57;;;15.27;;
84774;SDS011;75005;50.966;11.344;2024-03-23T03:34:38;28.20;;;12.60;;
84774;SDS011;75005;50.966;11.344;2024-03-23T03:37:03;23.43;;;13.43;;
84774;SDS011;75005;50.966;11.344;2024-03-23T03:39:29;24.80;;;13.45;;
84774;SDS011;75005;50.966;11.344;2024-03-23T03:41:54;23.93;;;14.33;;
84774;SDS011;75005;50.966;11.344;2024-03-23T03:44:20;22.43;;;13.93;;
84774;SDS011;75005;50.966;11.344;2024-03-23T03:46:45;28.95;;;14.20;;
84774;SDS011;75005;50.966;11.344;2024-03-23T03:49:10;23.80;;;13.07;;
84774;SDS011;75005;50.966;11.344;2024-03-23T03:51:36;23.60;;;13.57;;
84774;SDS011;75005;50.966;11.344;2024-03-23T03:54:01;23.63;;;13.55;;
84774;SDS011;75005;50.966;11.344;2024-03-23T03:56:27;21.88;;;12.18;;
84774;SDS011;75005;50.966;11.344;2024-03-23T03:58:52;22.95;;;13.55;;
84774;SDS011;75005;50.966;11.344;2024-03-23T04:01:18;26.43;;;13.60;;
84774;SDS011;75005;50.966;11.344;2024-03-23T04:03:43;25.93;;;15.10;;
84774;SDS011;75005;50.966;11.344;2024-03-23T04:06:12;21.08;;;13.25;;
84774;SDS011;75005;50.966;11.344;2024-03-23T04:08:37;30.52;;;15.25;;
84774;SDS011;75005;50.966;11.344;2024-03-23T04:11:03;28.05;;;14.73;;
84774;SDS011;75005;50.966;11.344;2024-03-23T04:13:28;29.13;;;14.68;;
84774;SDS011;75005;50.966;11.344;2024-03-23T04:15:54;25.30;;;14.60;;
84774;SDS011;75005;50.966;11.344;2024-03-23T04:18:20;25.50;;;14.45;;
84774;SDS011;75005;50.966;11.344;2024-03-23T04:20:46;25.92;;;12.85;;
84774;SDS011;75005;50.966;11.344;2024-03-23T04:23:12;25.67;;;13.15;;
84774;SDS011;75005;50.966;11.344;2024-03-23T04:25:37;27.17;;;15.10;;
84774;SDS011;75005;50.966;11.344;2024-03-23T04:28:03;26.70;;;13.63;;
84774;SDS011;75005;50.966;11.344;2024-03-23T04:30:29;31.83;;;12.85;;
84774;SDS011;75005;50.966;11.344;2024-03-23T04:32:55;27.63;;;15.13;;
84774;SDS011;75005;50.966;11.344;2024-03-23T04:35:21;32.42;;;14.73;;
84774;SDS011;75005;50.966;11.344;2024-03-23T04:37:53;24.35;;;12.88;;
84774;SDS011;75005;50.966;11.344;2024-03-23T04:40:19;27.08;;;14.25;;
84774;SDS011;75005;50.966;11.344;2024-03-23T04:42:44;30.25;;;14.35;;
84774;SDS011;75005;50.966;11.344;2024-03-23T04:45:09;32.43;;;14.80;;
84774;SDS011;75005;50.966;11.344;2024-03-23T04:47:35;39.70;;;15.07;;
84774;SDS011;75005;50.966;11.344;2024-03-23T04:50:02;35.85;;;16.45;;
84774;SDS011;75005;50.966;11.344;2024-03-23T04:52:28;34.33;;;15.82;;
84774;SDS011;75005;50.966;11.344;2024-03-23T04:54:54;36.28;;;16.17;;
84774;SDS011;75005;50.966;11.344;2024-03-23T04:57:19;28.08;;;13.90;;
84774;SDS011;75005;50.966;11.344;2024-03-23T04:59:45;27.03;;;12.33;;
84774;SDS011;75005;50.966;11.344;2024-03-23T05:02:10;25.40;;;12.43;;
84774;SDS011;75005;50.966;11.344;2024-03-23T05:04:35;26.60;;;13.57;;
84774;SDS011;75005;50.966;11.344;2024-03-23T05:07:02;28.85;;;14.02;;
84774;SDS011;75005;50.966;11.344;2024-03-23T05:09:27;32.20;;;14.35;;
84774;SDS011;75005;50.966;11.344;2024-03-23T05:11:55;32.08;;;14.93;;
84774;SDS011;75005;50.966;11.344;2024-03-23T05:14:20;26.45;;;13.32;;
84774;SDS011;75005;50.966;11.344;2024-03-23T05:16:46;28.03;;;14.67;;
84774;SDS011;75005;50.966;11.344;2024-03-23T05:19:11;27.57;;;11.93;;
84774;SDS011;75005;50.966;11.344;2024-03-23T05:21:36;27.27;;;13.88;;
84774;SDS011;75005;50.966;11.344;2024-03-23T05:24:02;28.05;;;13.35;;
84774;SDS011;75005;50.966;11.344;2024-03-23T05:26:28;31.88;;;14.50;;
84774;SDS011;75005;50.966;11.344;2024-03-23T05:28:53;30.75;;;13.60;;
84774;SDS011;75005;50.966;11.344;2024-03-23T05:31:25;29.85;;;14.82;;
84774;SDS011;75005;50.966;11.344;2024-03-23T05:33:52;30.90;;;13.77;;
84774;SDS011;75005;50.966;11.344;2024-03-23T05:36:17;29.58;;;14.65;;
84774;SDS011;75005;50.966;11.344;2024-03-23T05:38:43;32.25;;;13.52;;
84774;SDS011;75005;50.966;11.344;2024-03-23T05:41:08;31.60;;;14.07;;
84774;SDS011;75005;50.966;11.344;2024-03-23T05:43:33;26.80;;;13.03;;
84774;SDS011;75005;50.966;11.344;2024-03-23T05:45:59;27.95;;;10.98;;
84774;SDS011;75005;50.966;11.344;2024-03-23T05:48:26;27.30;;;11.75;;
84774;SDS011;75005;50.966;11.344;2024-03-23T05:50:53;26.25;;;12.80;;
84774;SDS011;75005;50.966;11.344;2024-03-23T05:53:19;29.63;;;12.30;;
84774;SDS011;75005;50.966;11.344;2024-03-23T05:55:48;27.90;;;12.25;;
84774;SDS011;75005;50.966;11.344;2024-03-23T05:58:17;28.00;;;12.10;;
84774;SDS011;75005;50.966;11.344;2024-03-23T06:03:09;27.70;;;12.38;;
84774;SDS011;75005;50.966;11.344;2024-03-23T06:05:37;37.53;;;13.82;;
84774;SDS011;75005;50.966;11.344;2024-03-23T06:08:03;35.30;;;14.55;;
84774;SDS011;75005;50.966;11.344;2024-03-23T06:10:29;32.80;;;12.77;;
84774;SDS011;75005;50.966;11.344;2024-03-23T06:12:55;34.73;;;14.97;;
84774;SDS011;75005;50.966;11.344;2024-03-23T06:15:20;52.75;;;17.33;;
84774;SDS011;75005;50.966;11.344;2024-03-23T06:17:47;36.03;;;17.00;;
84774;SDS011;75005;50.966;11.344;2024-03-23T06:20:13;44.20;;;16.05;;
84774;SDS011;75005;50.966;11.344;2024-03-23T06:22:39;42.55;;;18.20;;
84774;SDS011;75005;50.966;11.344;2024-03-23T06:25:04;53.63;;;21.33;;
84774;SDS011;75005;50.966;11.344;2024-03-23T06:27:31;44.70;;;20.20;;
84774;SDS011;75005;50.966;11.344;2024-03-23T06:29:57;44.30;;;18.58;;
84774;SDS011;75005;50.966;11.344;2024-03-23T06:32:23;42.40;;;17.52;;
84774;SDS011;75005;50.966;11.344;2024-03-23T06:34:49;47.47;;;19.60;;
84774;SDS011;75005;50.966;11.344;2024-03-23T06:37:14;43.07;;;19.63;;
84774;SDS011;75005;50.966;11.344;2024-03-23T06:39:39;43.77;;;18.57;;
84774;SDS011;75005;50.966;11.344;2024-03-23T06:42:05;41.53;;;18.20;;
84774;SDS011;75005;50.966;11.344;2024-03-23T06:44:30;47.15;;;20.02;;
84774;SDS011;75005;50.966;11.344;2024-03-23T06:46:56;43.47;;;21.02;;
84774;SDS011;75005;50.966;11.344;2024-03-23T06:49:22;54.72;;;18.52;;
84774;SDS011;75005;50.966;11.344;2024-03-23T06:51:48;24.50;;;10.52;;
84774;SDS011;75005;50.966;11.344;2024-03-23T06:54:14;28.90;;;10.35;;
84774;SDS011;75005;50.966;11.344;2024-03-23T06:56:40;22.80;;;8.02;;
84774;SDS011;75005;50.966;11.344;2024-03-23T06:59:05;17.27;;;6.90;;
84774;SDS011;75005;50.966;11.344;2024-03-23T07:01:30;9.88;;;5.25;;
84774;SDS011;75005;50.966;11.344;2024-03-23T07:03:56;5.63;;;2.30;;
84774;SDS011;75005;50.966;11.344;2024-03-23T07:06:21;3.33;;;2.05;;
84774;SDS011;75005;50.966;11.344;2024-03-23T07:08:47;3.78;;;2.33;;
84774;SDS011;75005;50.966;11.344;2024-03-23T07:11:18;14.45;;;2.45;;
84774;SDS011;75005;50.966;11.344;2024-03-23T07:13:49;3.58;;;2.45;;
84774;SDS011;75005;50.966;11.344;2024-03-23T07:16:15;10.15;;;2.88;;
84774;SDS011;75005;50.966;11.344;2024-03-23T07:19:01;3.95;;;2.35;;
84774;SDS011;75005;50.966;11.344;2024-03-23T07:21:26;6.43;;;1.73;;
84774;SDS011;75005;50.966;11.344;2024-03-23T07:23:52;6.95;;;2.45;;
84774;SDS011;75005;50.966;11.344;2024-03-23T07:26:17;2.83;;;1.70;;
84774;SDS011;75005;50.966;11.344;2024-03-23T07:28:43;3.17;;;1.55;;
84774;SDS011;75005;50.966;11.344;2024-03-23T07:31:11;2.65;;;1.33;;
84774;SDS011;75005;50.966;11.344;2024-03-23T07:33:41;1.52;;;1.00;;
84774;SDS011;75005;50.966;11.344;2024-03-23T07:36:10;1.83;;;1.15;;
84774;SDS011;75005;50.966;11.344;2024-03-23T07:38:36;1.60;;;1.50;;
84774;SDS011;75005;50.966;11.344;2024-03-23T07:41:05;2.00;;;1.30;;
84774;SDS011;75005;50.966;11.344;2024-03-23T07:43:34;2.50;;;1.13;;
84774;SDS011;75005;50.966;11.344;2024-03-23T07:46:00;1.42;;;1.05;;
84774;SDS011;75005;50.966;11.344;2024-03-23T07:48:26;2.00;;;1.08;;
84774;SDS011;75005;50.966;11.344;2024-03-23T07:53:33;1.25;;;1.05;;
84774;SDS011;75005;50.966;11.344;2024-03-23T07:58:30;1.83;;;0.90;;
84774;SDS011;75005;50.966;11.344;2024-03-23T08:00:56;1.00;;;0.77;;
84774;SDS011;75005;50.966;11.344;2024-03-23T08:03:21;0.98;;;0.82;;
84774;SDS011;75005;50.966;11.344;2024-03-23T08:05:47;1.35;;;0.85;;
84774;SDS011;75005;50.966;11.344;2024-03-23T08:08:13;1.45;;;0.90;;
84774;SDS011;75005;50.966;11.344;2024-03-23T08:10:51;0.98;;;0.75;;
84774;SDS011;75005;50.966;11.344;2024-03-23T08:13:17;1.00;;;1.00;;
84774;SDS011;75005;50.966;11.344;2024-03-23T08:15:43;2.70;;;0.98;;
84774;SDS011;75005;50.966;11.344;2024-03-23T08:18:10;0.95;;;0.68;;
84774;SDS011;75005;50.966;11.344;2024-03-23T08:20:38;0.70;;;0.70;;
84774;SDS011;75005;50.966;11.344;2024-03-23T08:23:07;0.55;;;0.40;;
84774;SDS011;75005;50.966;11.344;2024-03-23T08:25:32;0.47;;;0.40;;
84774;SDS011;75005;50.966;11.344;2024-03-23T08:27:58;0.50;;;0.50;;
84774;SDS011;75005;50.966;11.344;2024-03-23T08:30:24;2.42;;;0.63;;
84774;SDS011;75005;50.966;11.344;2024-03-23T08:32:49;1.33;;;0.60;;
84774;SDS011;75005;50.966;11.344;2024-03-23T08:35:15;0.43;;;0.43;;
84774;SDS011;75005;50.966;11.344;2024-03-23T08:37:40;0.43;;;0.43;;
84774;SDS011;75005;50.966;11.344;2024-03-23T08:40:06;0.55;;;0.55;;
84774;SDS011;75005;50.966;11.344;2024-03-23T08:42:31;0.50;;;0.50;;
84774;SDS011;75005;50.966;11.344;2024-03-23T08:44:57;2.50;;;1.23;;
84774;SDS011;75005;50.966;11.344;2024-03-23T08:47:22;0.65;;;0.65;;
84774;SDS011;75005;50.966;11.344;2024-03-23T08:49:47;2.87;;;0.80;;
84774;SDS011;75005;50.966;11.344;2024-03-23T08:52:13;1.30;;;0.63;;
84774;SDS011;75005;50.966;11.344;2024-03-23T08:54:38;1.23;;;0.88;;
84774;SDS011;75005;50.966;11.344;2024-03-23T08:57:04;0.90;;;0.90;;
84774;SDS011;75005;50.966;11.344;2024-03-23T08:59:29;1.00;;;0.90;;
84774;SDS011;75005;50.966;11.344;2024-03-23T09:01:54;1.13;;;0.80;;
84774;SDS011;75005;50.966;11.344;2024-03-23T09:04:21;0.95;;;0.95;;
84774;SDS011;75005;50.966;11.344;2024-03-23T09:06:46;0.73;;;0.73;;
84774;SDS011;75005;50.966;11.344;2024-03-23T09:09:12;0.60;;;0.60;;
84774;SDS011;75005;50.966;11.344;2024-03-23T09:11:37;0.73;;;0.73;;
84774;SDS011;75005;50.966;11.344;2024-03-23T09:14:02;0.60;;;0.60;;
84774;SDS011;75005;50.966;11.344;2024-03-23T09:16:28;1.30;;;0.70;;
84774;SDS011;75005;50.966;11.344;2024-03-23T09:18:54;1.27;;;1.23;;
84774;SDS011;75005;50.966;11.344;2024-03-23T09:21:19;1.17;;;0.75;;
84774;SDS011;75005;50.966;11.344;2024-03-23T09:23:44;0.50;;;0.50;;
84774;SDS011;75005;50.966;11.344;2024-03-23T09:26:10;1.20;;;0.63;;
84774;SDS011;75005;50.966;11.344;2024-03-23T09:28:36;0.80;;;0.80;;
84774;SDS011;75005;50.966;11.344;2024-03-23T09:31:02;2.83;;;0.90;;
84774;SDS011;75005;50.966;11.344;2024-03-23T09:33:28;0.50;;;0.50;;
84774;SDS011;75005;50.966;11.344;2024-03-23T09:35:54;2.25;;;1.00;;
84774;SDS011;75005;50.966;11.344;2024-03-23T09:38:21;1.38;;;0.88;;
84774;SDS011;75005;50.966;11.344;2024-03-23T09:40:47;1.83;;;0.70;;
84774;SDS011;75005;50.966;11.344;2024-03-23T09:43:14;1.30;;;0.88;;
84774;SDS011;75005;50.966;11.344;2024-03-23T09:45:40;1.27;;;0.90;;
84774;SDS011;75005;50.966;11.344;2024-03-23T09:48:08;1.35;;;0.95;;
84774;SDS011;75005;50.966;11.344;2024-03-23T09:50:38;1.33;;;0.90;;
84774;SDS011;75005;50.966;11.344;2024-03-23T09:53:07;1.25;;;0.90;;
84774;SDS011;75005;50.966;11.344;2024-03-23T09:55:33;1.27;;;0.93;;
84774;SDS011;75005;50.966;11.344;2024-03-23T09:58:00;4.63;;;1.20;;
84774;SDS011;75005;50.966;11.344;2024-03-23T10:00:26;1.00;;;1.00;;
84774;SDS011;75005;50.966;11.344;2024-03-23T10:02:51;4.70;;;0.90;;
84774;SDS011;75005;50.966;11.344;2024-03-23T10:05:20;1.40;;;0.88;;
84774;SDS011;75005;50.966;11.344;2024-03-23T10:07:49;1.27;;;0.93;;
84774;SDS011;75005;50.966;11.344;2024-03-23T10:10:16;1.35;;;1.25;;
84774;SDS011;75005;50.966;11.344;2024-03-23T10:12:45;4.30;;;1.80;;
84774;SDS011;75005;50.966;11.344;2024-03-23T10:15:21;4.10;;;1.23;;
84774;SDS011;75005;50.966;11.344;2024-03-23T10:17:48;1.35;;;0.93;;
84774;SDS011;75005;50.966;11.344;2024-03-23T10:20:20;3.13;;;1.00;;
84774;SDS011;75005;50.966;11.344;2024-03-23T10:22:47;1.65;;;1.02;;
84774;SDS011;75005;50.966;11.344;2024-03-23T10:25:14;1.73;;;1.23;;
84774;SDS011;75005;50.966;11.344;2024-03-23T10:27:40;2.25;;;1.17;;
84774;SDS011;75005;50.966;11.344;2024-03-23T10:32:38;2.22;;;1.60;;
84774;SDS011;75005;50.966;11.344;2024-03-23T10:35:19;1.20;;;0.73;;
84774;SDS011;75005;50.966;11.344;2024-03-23T10:37:48;3.60;;;0.90;;
84774;SDS011;75005;50.966;11.344;2024-03-23T10:40:17;4.65;;;1.30;;
84774;SDS011;75005;50.966;11.344;2024-03-23T10:42:43;5.88;;;1.15;;
84774;SDS011;75005;50.966;11.344;2024-03-23T10:45:09;5.85;;;1.45;;
84774;SDS011;75005;50.966;11.344;2024-03-23T10:47:36;3.25;;;1.85;;
84774;SDS011;75005;50.966;11.344;2024-03-23T10:50:05;1.88;;;1.02;;
84774;SDS011;75005;50.966;11.344;2024-03-23T10:52:32;2.65;;;1.10;;
84774;SDS011;75005;50.966;11.344;2024-03-23T10:54:58;2.00;;;1.50;;
84774;SDS011;75005;50.966;11.344;2024-03-23T10:58:08;3.83;;;1.52;;
84774;SDS011;75005;50.966;11.344;2024-03-23T11:00:16;2.20;;;1.83;;
84774;SDS011;75005;50.966;11.344;2024-03-23T11:02:42;4.82;;;1.88;;
84774;SDS011;75005;50.966;11.344;2024-03-23T11:07:51;5.68;;;2.17;;
84774;SDS011;75005;50.966;11.344;2024-03-23T11:10:28;8.30;;;2.38;;
84774;SDS011;75005;50.966;11.344;2024-03-23T11:12:55;6.05;;;3.33;;
84774;SDS011;75005;50.966;11.344;2024-03-23T11:15:43;3.78;;;1.52;;
84774;SDS011;75005;50.966;11.344;2024-03-23T11:18:09;7.53;;;2.95;;
84774;SDS011;75005;50.966;11.344;2024-03-23T11:20:35;6.18;;;2.17;;
84774;SDS011;75005;50.966;11.344;2024-03-23T11:23:00;3.72;;;2.38;;
84774;SDS011;75005;50.966;11.344;2024-03-23T11:25:27;8.60;;;2.45;;
84774;SDS011;75005;50.966;11.344;2024-03-23T11:27:54;8.25;;;2.28;;
84774;SDS011;75005;50.966;11.344;2024-03-23T11:30:20;3.60;;;2.08;;
84774;SDS011;75005;50.966;11.344;2024-03-23T11:32:49;6.55;;;2.33;;
84774;SDS011;75005;50.966;11.344;2024-03-23T11:35:26;5.82;;;2.65;;
84774;SDS011;75005;50.966;11.344;2024-03-23T11:40:45;3.25;;;2.20;;
84774;SDS011;75005;50.966;11.344;2024-03-23T11:43:12;6.05;;;2.45;;
84774;SDS011;75005;50.966;11.344;2024-03-23T11:45:40;4.18;;;2.00;;
84774;SDS011;75005;50.966;11.344;2024-03-23T11:48:08;7.88;;;2.80;;
84774;SDS011;75005;50.966;11.344;2024-03-23T11:50:36;11.00;;;3.60;;
84774;SDS011;75005;50.966;11.344;2024-03-23T11:53:15;9.52;;;3.45;;
84774;SDS011;75005;50.966;11.344;2024-03-23T11:55:48;8.07;;;3.33;;
84774;SDS011;75005;50.966;11.344;2024-03-23T11:58:21;7.25;;;3.00;;
84774;SDS011;75005;50.966;11.344;2024-03-23T12:00:49;7.70;;;3.35;;
84774;SDS011;75005;50.966;11.344;2024-03-23T12:03:16;6.43;;;3.53;;
84774;SDS011;75005;50.966;11.344;2024-03-23T12:05:41;8.02;;;3.53;;
84774;SDS011;75005;50.966;11.344;2024-03-23T12:08:20;7.27;;;3.10;;
84774;SDS011;75005;50.966;11.344;2024-03-23T12:10:53;10.07;;;3.30;;
84774;SDS011;75005;50.966;11.344;2024-03-23T12:13:29;11.85;;;4.03;;
84774;SDS011;75005;50.966;11.344;2024-03-23T12:15:54;6.07;;;3.65;;
84774;SDS011;75005;50.966;11.344;2024-03-23T12:18:23;9.32;;;4.50;;
84774;SDS011;75005;50.966;11.344;2024-03-23T12:23:15;8.48;;;3.33;;
84774;SDS011;75005;50.966;11.344;2024-03-23T12:25:40;7.03;;;3.37;;
84774;SDS011;75005;50.966;11.344;2024-03-23T12:28:06;8.43;;;3.30;;
84774;SDS011;75005;50.966;11.344;2024-03-23T12:30:35;7.05;;;3.40;;
84774;SDS011;75005;50.966;11.344;2024-03-23T12:33:03;8.88;;;3.25;;
84774;SDS011;75005;50.966;11.344;2024-03-23T12:35:29;7.82;;;3.30;;
84774;SDS011;75005;50.966;11.344;2024-03-23T12:37:54;13.75;;;3.28;;
84774;SDS011;75005;50.966;11.344;2024-03-23T12:40:20;7.68;;;3.42;;
84774;SDS011;75005;50.966;11.344;2024-03-23T12:42:45;8.60;;;2.90;;
84774;SDS011;75005;50.966;11.344;2024-03-23T12:45:11;7.15;;;3.33;;
84774;SDS011;75005;50.966;11.344;2024-03-23T12:47:36;6.33;;;4.27;;
84774;SDS011;75005;50.966;11.344;2024-03-23T12:50:03;6.72;;;3.60;;
84774;SDS011;75005;50.966;11.344;2024-03-23T12:52:28;5.68;;;3.13;;
84774;SDS011;75005;50.966;11.344;2024-03-23T12:54:55;7.10;;;3.03;;
84774;SDS011;75005;50.966;11.344;2024-03-23T12:57:22;7.05;;;3.00;;
84774;SDS011;75005;50.966;11.344;2024-03-23T12:59:48;6.57;;;2.95;;
84774;SDS011;75005;50.966;11.344;2024-03-23T13:02:16;3.80;;;2.15;;
84774;SDS011;75005;50.966;11.344;2024-03-23T13:04:45;3.33;;;2.13;;
84774;SDS011;75005;50.966;11.344;2024-03-23T13:07:20;6.45;;;3.30;;
84774;SDS011;75005;50.966;11.344;2024-03-23T13:09:46;4.03;;;2.03;;
84774;SDS011;75005;50.966;11.344;2024-03-23T13:15:36;4.35;;;1.88;;
84774;SDS011;75005;50.966;11.344;2024-03-23T13:18:01;7.43;;;2.20;;
84774;SDS011;75005;50.966;11.344;2024-03-23T13:20:27;3.72;;;1.85;;
84774;SDS011;75005;50.966;11.344;2024-03-23T13:22:52;4.03;;;1.83;;
84774;SDS011;75005;50.966;11.344;2024-03-23T13:25:17;3.10;;;1.90;;
84774;SDS011;75005;50.966;11.344;2024-03-23T13:27:43;5.07;;;1.42;;
84774;SDS011;75005;50.966;11.344;2024-03-23T13:30:09;3.83;;;1.88;;
84774;SDS011;75005;50.966;11.344;2024-03-23T13:32:35;6.03;;;2.25;;
84774;SDS011;75005;50.966;11.344;2024-03-23T13:35:00;4.00;;;1.70;;
84774;SDS011;75005;50.966;11.344;2024-03-23T13:37:26;5.03;;;1.48;;
84774;SDS011;75005;50.966;11.344;2024-03-23T13:39:51;4.38;;;1.50;;
84774;SDS011;75005;50.966;11.344;2024-03-23T13:42:17;5.27;;;1.43;;
84774;SDS011;75005;50.966;11.344;2024-03-23T13:44:42;4.40;;;1.67;;
84774;SDS011;75005;50.966;11.344;2024-03-23T13:47:08;4.10;;;1.40;;
84774;SDS011;75005;50.966;11.344;2024-03-23T13:49:33;2.78;;;1.85;;
84774;SDS011;75005;50.966;11.344;2024-03-23T13:51:59;8.02;;;2.63;;
84774;SDS011;75005;50.966;11.344;2024-03-23T13:54:25;2.60;;;1.00;;
84774;SDS011;75005;50.966;11.344;2024-03-23T13:56:51;3.92;;;1.30;;
84774;SDS011;75005;50.966;11.344;2024-03-23T13:59:17;3.53;;;1.25;;
84774;SDS011;75005;50.966;11.344;2024-03-23T14:01:46;5.07;;;1.58;;
84774;SDS011;75005;50.966;11.344;2024-03-23T14:04:12;6.03;;;1.60;;
84774;SDS011;75005;50.966;11.344;2024-03-23T14:06:37;2.70;;;1.17;;
84774;SDS011;75005;50.966;11.344;2024-03-23T14:09:03;4.93;;;1.23;;
84774;SDS011;75005;50.966;11.344;2024-03-23T14:11:29;2.70;;;1.40;;
84774;SDS011;75005;50.966;11.344;2024-03-23T14:13:54;1.75;;;1.60;;
84774;SDS011;75005;50.966;11.344;2024-03-23T14:16:20;4.28;;;1.58;;
84774;SDS011;75005;50.966;11.344;2024-03-23T14:18:48;5.47;;;2.15;;
84774;SDS011;75005;50.966;11.344;2024-03-23T14:21:14;6.35;;;2.45;;
84774;SDS011;75005;50.966;11.344;2024-03-23T14:23:39;2.42;;;1.80;;
84774;SDS011;75005;50.966;11.344;2024-03-23T14:26:06;6.40;;;2.55;;
84774;SDS011;75005;50.966;11.344;2024-03-23T14:28:31;6.25;;;1.88;;
84774;SDS011;75005;50.966;11.344;2024-03-23T14:30:57;3.38;;;2.20;;
84774;SDS011;75005;50.966;11.344;2024-03-23T14:33:22;2.67;;;1.73;;
84774;SDS011;75005;50.966;11.344;2024-03-23T14:35:52;7.75;;;2.45;;
84774;SDS011;75005;50.966;11.344;2024-03-23T14:38:19;4.15;;;2.03;;
84774;SDS011;75005;50.966;11.344;2024-03-23T14:40:45;3.88;;;1.73;;
84774;SDS011;75005;50.966;11.344;2024-03-23T14:43:11;4.22;;;1.65;;
84774;SDS011;75005;50.966;11.344;2024-03-23T14:45:37;2.53;;;1.40;;
84774;SDS011;75005;50.966;11.344;2024-03-23T14:48:02;3.95;;;1.00;;
84774;SDS011;75005;50.966;11.344;2024-03-23T14:50:28;3.08;;;1.20;;
84774;SDS011;75005;50.966;11.344;2024-03-23T14:52:53;2.93;;;1.50;;
84774;SDS011;75005;50.966;11.344;2024-03-23T14:55:18;1.27;;;1.17;;
84774;SDS011;75005;50.966;11.344;2024-03-23T14:57:45;2.97;;;1.63;;
84774;SDS011;75005;50.966;11.344;2024-03-23T15:00:11;3.47;;;1.85;;
84774;SDS011;75005;50.966;11.344;2024-03-23T15:02:37;7.45;;;2.53;;
84774;SDS011;75005;50.966;11.344;2024-03-23T15:05:03;2.75;;;1.50;;
84774;SDS011;75005;50.966;11.344;2024-03-23T15:07:29;1.90;;;1.65;;
84774;SDS011;75005;50.966;11.344;2024-03-23T15:09:58;9.00;;;2.70;;
84774;SDS011;75005;50.966;11.344;2024-03-23T15:12:23;1.92;;;1.48;;
84774;SDS011;75005;50.966;11.344;2024-03-23T15:14:49;2.78;;;1.63;;
84774;SDS011;75005;50.966;11.344;2024-03-23T15:17:14;2.13;;;1.67;;
84774;SDS011;75005;50.966;11.344;2024-03-23T15:19:40;3.58;;;1.35;;
84774;SDS011;75005;50.966;11.344;2024-03-23T15:22:07;3.13;;;1.67;;
84774;SDS011;75005;50.966;11.344;2024-03-23T15:24:33;4.75;;;2.17;;
84774;SDS011;75005;50.966;11.344;2024-03-23T15:27:00;2.35;;;1.60;;
84774;SDS011;75005;50.966;11.344;2024-03-23T15:29:25;8.45;;;4.45;;
84774;SDS011;75005;50.966;11.344;2024-03-23T15:31:51;2.87;;;1.77;;
84774;SDS011;75005;50.966;11.344;2024-03-23T15:34:18;2.47;;;1.60;;